Ashville, Alabama
Current Conditions -  °F | °C
As of 2:15 AM on Friday 28 Nov 2014 (Local Time) from KGAD Reporting Station
Clear Clear  
Wind Chill: 28°   Ceiling: Unl
Heat Index: 28°   Visibility: 10mi
Dew Point: 21°   Wind: 3mph
Humidity: 74%   Direction: 350°N
Pressure: 30.44"   Gusts: NA
Location:  33.84°N, 86.25°W
Report Text: KGAD 280815Z 35003KT 10SM CLR M02/M06 A3044 RMK AO1
Loading
Personal Weather Stations






























Interactive Weather Map New forecast layout! Learn more

10-Day Weather Forecast

Advertisements
Track Severe Weather on mobile